sensor_id;sensor_type;location;lat;lon;timestamp;pressure;altitude;pressure_sealevel;temperature;humidity
8941;BME280;4505;43.406;23.226;2023-01-29T00:01:28;100194.66;;;4.03;100.00
8941;BME280;4505;43.406;23.226;2023-01-29T00:03:57;100186.97;;;4.31;100.00
8941;BME280;4505;43.406;23.226;2023-01-29T00:06:26;100195.78;;;4.23;100.00
8941;BME280;4505;43.406;23.226;2023-01-29T00:08:53;100195.50;;;4.18;100.00
8941;BME280;4505;43.406;23.226;2023-01-29T00:11:20;100193.22;;;4.15;100.00
8941;BME280;4505;43.406;23.226;2023-01-29T00:13:48;100202.72;;;4.02;100.00
8941;BME280;4505;43.406;23.226;2023-01-29T00:16:16;100204.28;;;4.11;100.00
8941;BME280;4505;43.406;23.226;2023-01-29T00:18:42;100216.53;;;3.81;100.00
8941;BME280;4505;43.406;23.226;2023-01-29T00:21:09;100212.72;;;3.84;100.00
8941;BME280;4505;43.406;23.226;2023-01-29T00:23:36;100212.41;;;3.64;100.00
8941;BME280;4505;43.406;23.226;2023-01-29T00:26:02;100222.78;;;3.80;100.00
8941;BME280;4505;43.406;23.226;2023-01-29T00:28:29;100227.34;;;3.64;100.00
8941;BME280;4505;43.406;23.226;2023-01-29T00:30:56;100226.75;;;3.76;100.00
8941;BME280;4505;43.406;23.226;2023-01-29T00:33:24;100226.41;;;3.34;100.00
8941;BME280;4505;43.406;23.226;2023-01-29T00:35:50;100228.84;;;3.36;100.00
8941;BME280;4505;43.406;23.226;2023-01-29T00:38:17;100231.47;;;3.58;100.00
8941;BME280;4505;43.406;23.226;2023-01-29T00:40:43;100233.88;;;3.68;100.00
8941;BME280;4505;43.406;23.226;2023-01-29T00:43:27;100235.63;;;3.75;100.00
8941;BME280;4505;43.406;23.226;2023-01-29T00:46:11;100241.19;;;3.80;100.00
8941;BME280;4505;43.406;23.226;2023-01-29T00:48:39;100239.28;;;3.66;100.00
8941;BME280;4505;43.406;23.226;2023-01-29T00:51:05;100244.72;;;3.87;100.00
8941;BME280;4505;43.406;23.226;2023-01-29T00:53:32;100248.03;;;4.04;100.00
8941;BME280;4505;43.406;23.226;2023-01-29T00:55:59;100241.75;;;3.68;100.00
8941;BME280;4505;43.406;23.226;2023-01-29T00:58:25;100247.69;;;3.84;100.00
8941;BME280;4505;43.406;23.226;2023-01-29T01:00:58;100247.63;;;3.92;100.00
8941;BME280;4505;43.406;23.226;2023-01-29T01:03:25;100249.91;;;3.95;100.00
8941;BME280;4505;43.406;23.226;2023-01-29T01:06:02;100246.78;;;3.77;100.00
8941;BME280;4505;43.406;23.226;2023-01-29T01:08:29;100258.09;;;3.55;100.00
8941;BME280;4505;43.406;23.226;2023-01-29T01:11:13;100260.34;;;3.36;100.00
8941;BME280;4505;43.406;23.226;2023-01-29T01:13:39;100260.06;;;3.31;100.00
8941;BME280;4505;43.406;23.226;2023-01-29T01:16:07;100267.59;;;3.34;100.00
8941;BME280;4505;43.406;23.226;2023-01-29T01:18:34;100265.56;;;3.66;100.00
8941;BME280;4505;43.406;23.226;2023-01-29T01:21:03;100265.38;;;3.68;100.00
8941;BME280;4505;43.406;23.226;2023-01-29T01:23:30;100263.00;;;3.28;100.00
8941;BME280;4505;43.406;23.226;2023-01-29T01:25:57;100272.16;;;3.40;100.00
8941;BME280;4505;43.406;23.226;2023-01-29T01:28:24;100269.28;;;3.49;100.00
8941;BME280;4505;43.406;23.226;2023-01-29T01:30:50;100267.81;;;3.24;100.00
8941;BME280;4505;43.406;23.226;2023-01-29T01:33:17;100268.06;;;3.37;100.00
8941;BME280;4505;43.406;23.226;2023-01-29T01:35:44;100270.47;;;3.16;100.00
8941;BME280;4505;43.406;23.226;2023-01-29T01:38:12;100277.88;;;3.13;100.00
8941;BME280;4505;43.406;23.226;2023-01-29T01:40:42;100264.88;;;3.19;100.00
8941;BME280;4505;43.406;23.226;2023-01-29T01:43:09;100273.03;;;2.93;100.00
8941;BME280;4505;43.406;23.226;2023-01-29T01:45:36;100267.00;;;3.24;100.00
8941;BME280;4505;43.406;23.226;2023-01-29T01:48:03;100265.63;;;3.28;100.00
8941;BME280;4505;43.406;23.226;2023-01-29T01:50:32;100265.69;;;3.20;100.00
8941;BME280;4505;43.406;23.226;2023-01-29T01:53:01;100264.06;;;3.19;100.00
8941;BME280;4505;43.406;23.226;2023-01-29T01:55:31;100269.53;;;3.09;100.00
8941;BME280;4505;43.406;23.226;2023-01-29T01:58:00;100269.75;;;3.30;100.00
8941;BME280;4505;43.406;23.226;2023-01-29T02:00:28;100271.97;;;3.41;100.00
8941;BME280;4505;43.406;23.226;2023-01-29T02:02:55;100270.78;;;3.44;100.00
8941;BME280;4505;43.406;23.226;2023-01-29T02:05:39;100280.41;;;3.29;100.00
8941;BME280;4505;43.406;23.226;2023-01-29T02:08:25;100272.09;;;3.17;100.00
8941;BME280;4505;43.406;23.226;2023-01-29T02:11:12;100277.44;;;3.01;100.00
8941;BME280;4505;43.406;23.226;2023-01-29T02:13:39;100268.56;;;3.33;100.00
8941;BME280;4505;43.406;23.226;2023-01-29T02:16:06;100272.66;;;3.35;100.00
8941;BME280;4505;43.406;23.226;2023-01-29T02:18:33;100277.31;;;3.25;100.00
8941;BME280;4505;43.406;23.226;2023-01-29T02:21:11;100280.06;;;3.01;100.00
8941;BME280;4505;43.406;23.226;2023-01-29T02:23:54;100280.72;;;3.03;100.00
8941;BME280;4505;43.406;23.226;2023-01-29T02:26:35;100275.16;;;3.29;100.00
8941;BME280;4505;43.406;23.226;2023-01-29T02:29:07;100282.16;;;3.36;100.00
8941;BME280;4505;43.406;23.226;2023-01-29T02:31:54;100283.53;;;3.32;100.00
8941;BME280;4505;43.406;23.226;2023-01-29T02:34:26;100283.53;;;3.32;100.00
8941;BME280;4505;43.406;23.226;2023-01-29T02:36:56;100282.78;;;3.16;100.00
8941;BME280;4505;43.406;23.226;2023-01-29T02:39:27;100285.97;;;3.03;100.00
8941;BME280;4505;43.406;23.226;2023-01-29T02:41:59;100282.22;;;3.28;100.00
8941;BME280;4505;43.406;23.226;2023-01-29T02:44:29;100282.38;;;2.96;100.00
8941;BME280;4505;43.406;23.226;2023-01-29T02:47:00;100283.19;;;2.97;100.00
8941;BME280;4505;43.406;23.226;2023-01-29T02:49:30;100287.81;;;3.25;100.00
8941;BME280;4505;43.406;23.226;2023-01-29T02:51:59;100291.91;;;2.97;100.00
8941;BME280;4505;43.406;23.226;2023-01-29T02:54:30;100288.53;;;3.11;100.00
8941;BME280;4505;43.406;23.226;2023-01-29T02:56:58;100291.97;;;3.12;100.00
8941;BME280;4505;43.406;23.226;2023-01-29T02:59:27;100296.94;;;3.07;100.00
8941;BME280;4505;43.406;23.226;2023-01-29T03:01:56;100293.97;;;3.10;100.00
8941;BME280;4505;43.406;23.226;2023-01-29T03:04:27;100291.31;;;3.18;100.00
8941;BME280;4505;43.406;23.226;2023-01-29T03:06:56;100297.28;;;2.95;100.00
8941;BME280;4505;43.406;23.226;2023-01-29T03:09:25;100289.00;;;2.84;100.00
8941;BME280;4505;43.406;23.226;2023-01-29T03:11:56;100293.22;;;2.85;100.00
8941;BME280;4505;43.406;23.226;2023-01-29T03:14:24;100293.34;;;3.00;100.00
8941;BME280;4505;43.406;23.226;2023-01-29T03:17:16;100306.34;;;3.24;100.00
8941;BME280;4505;43.406;23.226;2023-01-29T03:19:43;100299.72;;;3.36;100.00
8941;BME280;4505;43.406;23.226;2023-01-29T03:22:12;100299.09;;;3.34;100.00
8941;BME280;4505;43.406;23.226;2023-01-29T03:24:44;100299.75;;;3.58;100.00
8941;BME280;4505;43.406;23.226;2023-01-29T03:27:30;100300.81;;;3.49;100.00
8941;BME280;4505;43.406;23.226;2023-01-29T03:30:15;100311.69;;;3.38;100.00
8941;BME280;4505;43.406;23.226;2023-01-29T03:33:03;100308.41;;;3.36;100.00
8941;BME280;4505;43.406;23.226;2023-01-29T03:35:33;100304.88;;;3.52;100.00
8941;BME280;4505;43.406;23.226;2023-01-29T03:38:01;100317.00;;;3.30;100.00
8941;BME280;4505;43.406;23.226;2023-01-29T03:40:28;100313.94;;;3.11;100.00
8941;BME280;4505;43.406;23.226;2023-01-29T03:43:04;100309.72;;;3.40;100.00
8941;BME280;4505;43.406;23.226;2023-01-29T03:45:37;100308.97;;;3.54;100.00
8941;BME280;4505;43.406;23.226;2023-01-29T03:48:09;100304.25;;;3.50;100.00
8941;BME280;4505;43.406;23.226;2023-01-29T03:50:37;100302.50;;;3.34;100.00
8941;BME280;4505;43.406;23.226;2023-01-29T03:53:08;100309.28;;;2.90;100.00
8941;BME280;4505;43.406;23.226;2023-01-29T03:55:40;100301.00;;;3.09;100.00
8941;BME280;4505;43.406;23.226;2023-01-29T03:58:12;100308.63;;;3.27;100.00
8941;BME280;4505;43.406;23.226;2023-01-29T04:00:44;100302.66;;;3.41;100.00
8941;BME280;4505;43.406;23.226;2023-01-29T04:03:14;100304.25;;;3.19;100.00
8941;BME280;4505;43.406;23.226;2023-01-29T04:05:44;100309.06;;;3.08;100.00
8941;BME280;4505;43.406;23.226;2023-01-29T04:08:13;100305.78;;;3.36;100.00
8941;BME280;4505;43.406;23.226;2023-01-29T04:10:42;100300.03;;;3.41;100.00
8941;BME280;4505;43.406;23.226;2023-01-29T04:13:10;100305.94;;;3.65;100.00
8941;BME280;4505;43.406;23.226;2023-01-29T04:15:40;100301.47;;;3.74;100.00
8941;BME280;4505;43.406;23.226;2023-01-29T04:18:08;100304.56;;;3.55;100.00
8941;BME280;4505;43.406;23.226;2023-01-29T04:20:36;100302.19;;;3.37;100.00
8941;BME280;4505;43.406;23.226;2023-01-29T04:23:04;100306.66;;;3.29;100.00
8941;BME280;4505;43.406;23.226;2023-01-29T04:25:33;100301.38;;;3.37;100.00
8941;BME280;4505;43.406;23.226;2023-01-29T04:28:03;100299.00;;;3.50;100.00
8941;BME280;4505;43.406;23.226;2023-01-29T04:30:34;100306.19;;;3.25;100.00
8941;BME280;4505;43.406;23.226;2023-01-29T04:33:06;100297.75;;;3.38;100.00
8941;BME280;4505;43.406;23.226;2023-01-29T04:35:40;100296.03;;;3.53;100.00
8941;BME280;4505;43.406;23.226;2023-01-29T04:38:10;100304.66;;;3.39;100.00
8941;BME280;4505;43.406;23.226;2023-01-29T04:40:40;100303.91;;;3.53;100.00
8941;BME280;4505;43.406;23.226;2023-01-29T04:43:12;100305.78;;;3.36;100.00
8941;BME280;4505;43.406;23.226;2023-01-29T04:45:43;100314.88;;;3.26;100.00
8941;BME280;4505;43.406;23.226;2023-01-29T04:48:16;100321.78;;;3.19;100.00
8941;BME280;4505;43.406;23.226;2023-01-29T04:50:48;100316.63;;;3.33;100.00
8941;BME280;4505;43.406;23.226;2023-01-29T04:53:21;100315.28;;;3.45;100.00
8941;BME280;4505;43.406;23.226;2023-01-29T04:55:51;100319.97;;;3.27;100.00
8941;BME280;4505;43.406;23.226;2023-01-29T04:58:24;100326.44;;;3.39;100.00
8941;BME280;4505;43.406;23.226;2023-01-29T05:00:52;100325.00;;;3.37;100.00
8941;BME280;4505;43.406;23.226;2023-01-29T05:03:20;100324.34;;;3.35;100.00
8941;BME280;4505;43.406;23.226;2023-01-29T05:05:49;100327.28;;;3.40;100.00
8941;BME280;4505;43.406;23.226;2023-01-29T05:08:17;100327.75;;;3.43;100.00
8941;BME280;4505;43.406;23.226;2023-01-29T05:10:44;100316.31;;;3.59;100.00
8941;BME280;4505;43.406;23.226;2023-01-29T05:13:12;100330.53;;;3.72;100.00
8941;BME280;4505;43.406;23.226;2023-01-29T05:15:41;100326.78;;;3.67;100.00
8941;BME280;4505;43.406;23.226;2023-01-29T05:18:09;100327.78;;;3.66;100.00
8941;BME280;4505;43.406;23.226;2023-01-29T05:20:36;100337.28;;;3.36;100.00
8941;BME280;4505;43.406;23.226;2023-01-29T05:23:05;100333.34;;;3.02;100.00
8941;BME280;4505;43.406;23.226;2023-01-29T05:25:34;100338.91;;;3.07;100.00
8941;BME280;4505;43.406;23.226;2023-01-29T05:28:01;100336.63;;;2.95;100.00
8941;BME280;4505;43.406;23.226;2023-01-29T05:30:30;100337.13;;;2.99;100.00
8941;BME280;4505;43.406;23.226;2023-01-29T05:32:56;100332.22;;;2.96;100.00
8941;BME280;4505;43.406;23.226;2023-01-29T05:35:23;100332.13;;;2.65;100.00
8941;BME280;4505;43.406;23.226;2023-01-29T05:37:49;100342.22;;;2.92;100.00
8941;BME280;4505;43.406;23.226;2023-01-29T05:40:17;100343.53;;;2.97;100.00
8941;BME280;4505;43.406;23.226;2023-01-29T05:42:44;100352.75;;;3.23;100.00
8941;BME280;4505;43.406;23.226;2023-01-29T05:45:10;100346.69;;;3.31;100.00
8941;BME280;4505;43.406;23.226;2023-01-29T05:47:37;100350.38;;;3.44;100.00
8941;BME280;4505;43.406;23.226;2023-01-29T05:50:04;100351.44;;;3.27;100.00
8941;BME280;4505;43.406;23.226;2023-01-29T05:52:31;100353.78;;;3.14;100.00
8941;BME280;4505;43.406;23.226;2023-01-29T05:54:57;100349.50;;;3.21;100.00
8941;BME280;4505;43.406;23.226;2023-01-29T05:57:25;100353.59;;;3.24;100.00
8941;BME280;4505;43.406;23.226;2023-01-29T05:59:55;100358.38;;;3.12;100.00
8941;BME280;4505;43.406;23.226;2023-01-29T06:02:24;100362.16;;;3.18;100.00
8941;BME280;4505;43.406;23.226;2023-01-29T06:04:50;100371.13;;;3.23;100.00
8941;BME280;4505;43.406;23.226;2023-01-29T06:07:17;100372.78;;;3.63;100.00
8941;BME280;4505;43.406;23.226;2023-01-29T06:09:44;100370.38;;;3.76;100.00
8941;BME280;4505;43.406;23.226;2023-01-29T06:12:11;100370.59;;;3.66;100.00
8941;BME280;4505;43.406;23.226;2023-01-29T06:14:39;100374.72;;;3.69;100.00
8941;BME280;4505;43.406;23.226;2023-01-29T06:17:06;100378.94;;;3.39;100.00
8941;BME280;4505;43.406;23.226;2023-01-29T06:19:32;100384.78;;;3.19;100.00
8941;BME280;4505;43.406;23.226;2023-01-29T06:21:59;100381.34;;;3.10;100.00
8941;BME280;4505;43.406;23.226;2023-01-29T06:24:26;100392.31;;;3.22;100.00
8941;BME280;4505;43.406;23.226;2023-01-29T06:26:52;100402.22;;;2.95;100.00
8941;BME280;4505;43.406;23.226;2023-01-29T06:29:19;100401.91;;;3.45;100.00
8941;BME280;4505;43.406;23.226;2023-01-29T06:31:51;100393.13;;;3.61;100.00
8941;BME280;4505;43.406;23.226;2023-01-29T06:34:17;100409.13;;;3.43;100.00
8941;BME280;4505;43.406;23.226;2023-01-29T06:36:44;100403.59;;;3.69;100.00
8941;BME280;4505;43.406;23.226;2023-01-29T06:39:10;100407.72;;;3.94;100.00
8941;BME280;4505;43.406;23.226;2023-01-29T06:41:37;100420.53;;;3.58;100.00
8941;BME280;4505;43.406;23.226;2023-01-29T06:44:04;100416.44;;;3.94;100.00
8941;BME280;4505;43.406;23.226;2023-01-29T06:46:30;100409.50;;;3.71;100.00
8941;BME280;4505;43.406;23.226;2023-01-29T06:48:58;100416.16;;;3.81;100.00
8941;BME280;4505;43.406;23.226;2023-01-29T06:51:25;100426.09;;;3.63;100.00
8941;BME280;4505;43.406;23.226;2023-01-29T06:53:52;100424.13;;;3.96;100.00
8941;BME280;4505;43.406;23.226;2023-01-29T06:56:20;100424.63;;;3.99;100.00
8941;BME280;4505;43.406;23.226;2023-01-29T06:58:47;100427.44;;;4.20;100.00
8941;BME280;4505;43.406;23.226;2023-01-29T07:01:13;100428.25;;;4.43;100.00
8941;BME280;4505;43.406;23.226;2023-01-29T07:03:40;100426.25;;;4.46;100.00
8941;BME280;4505;43.406;23.226;2023-01-29T07:06:09;100428.59;;;4.40;100.00
8941;BME280;4505;43.406;23.226;2023-01-29T07:08:36;100427.38;;;4.51;100.00
8941;BME280;4505;43.406;23.226;2023-01-29T07:11:05;100434.78;;;4.48;100.00
8941;BME280;4505;43.406;23.226;2023-01-29T07:13:45;100428.47;;;4.34;100.00
8941;BME280;4505;43.406;23.226;2023-01-29T07:16:12;100433.13;;;4.47;100.00
8941;BME280;4505;43.406;23.226;2023-01-29T07:18:39;100430.50;;;4.47;100.00
8941;BME280;4505;43.406;23.226;2023-01-29T07:21:06;100428.75;;;4.62;100.00
8941;BME280;4505;43.406;23.226;2023-01-29T07:23:34;100438.34;;;4.55;100.00
8941;BME280;4505;43.406;23.226;2023-01-29T07:26:01;100437.66;;;4.61;100.00
8941;BME280;4505;43.406;23.226;2023-01-29T07:28:28;100437.72;;;4.53;100.00
8941;BME280;4505;43.406;23.226;2023-01-29T07:30:55;100439.59;;;4.44;100.00
8941;BME280;4505;43.406;23.226;2023-01-29T07:33:22;100439.09;;;4.18;100.00
8941;BME280;4505;43.406;23.226;2023-01-29T07:35:48;100440.25;;;3.93;100.00
8941;BME280;4505;43.406;23.226;2023-01-29T07:38:15;100447.63;;;4.20;100.00
8941;BME280;4505;43.406;23.226;2023-01-29T07:40:43;100445.25;;;4.56;100.00
8941;BME280;4505;43.406;23.226;2023-01-29T07:43:10;100453.78;;;4.12;100.00
8941;BME280;4505;43.406;23.226;2023-01-29T07:45:37;100446.59;;;3.68;100.00
8941;BME280;4505;43.406;23.226;2023-01-29T07:48:04;100454.50;;;3.98;100.00
8941;BME280;4505;43.406;23.226;2023-01-29T07:50:31;100464.38;;;3.96;100.00
8941;BME280;4505;43.406;23.226;2023-01-29T07:52:58;100461.41;;;3.99;100.00
8941;BME280;4505;43.406;23.226;2023-01-29T07:55:24;100466.44;;;4.09;100.00
8941;BME280;4505;43.406;23.226;2023-01-29T07:57:55;100468.50;;;3.91;100.00
8941;BME280;4505;43.406;23.226;2023-01-29T08:00:22;100476.84;;;4.25;100.00
8941;BME280;4505;43.406;23.226;2023-01-29T08:02:48;100472.06;;;4.74;100.00
8941;BME280;4505;43.406;23.226;2023-01-29T08:05:15;100469.97;;;4.47;100.00
8941;BME280;4505;43.406;23.226;2023-01-29T08:07:42;100470.25;;;4.52;100.00
8941;BME280;4505;43.406;23.226;2023-01-29T08:10:09;100471.00;;;4.83;100.00
8941;BME280;4505;43.406;23.226;2023-01-29T08:12:36;100480.13;;;4.72;100.00
8941;BME280;4505;43.406;23.226;2023-01-29T08:15:04;100470.34;;;4.81;100.00
8941;BME280;4505;43.406;23.226;2023-01-29T08:17:31;100480.13;;;5.09;100.00
8941;BME280;4505;43.406;23.226;2023-01-29T08:19:57;100472.78;;;5.19;100.00
8941;BME280;4505;43.406;23.226;2023-01-29T08:22:24;100477.97;;;5.27;100.00
8941;BME280;4505;43.406;23.226;2023-01-29T08:24:51;100479.75;;;4.98;100.00
8941;BME280;4505;43.406;23.226;2023-01-29T08:27:17;100480.47;;;5.06;100.00
8941;BME280;4505;43.406;23.226;2023-01-29T08:29:44;100488.97;;;5.31;100.00
8941;BME280;4505;43.406;23.226;2023-01-29T08:32:12;100491.16;;;5.56;100.00
8941;BME280;4505;43.406;23.226;2023-01-29T08:34:38;100488.06;;;5.53;100.00
8941;BME280;4505;43.406;23.226;2023-01-29T08:37:05;100491.03;;;5.21;100.00
8941;BME280;4505;43.406;23.226;2023-01-29T08:39:39;100490.50;;;5.40;100.00
8941;BME280;4505;43.406;23.226;2023-01-29T08:42:05;100489.88;;;5.81;100.00
8941;BME280;4505;43.406;23.226;2023-01-29T08:44:32;100488.34;;;5.72;100.00
8941;BME280;4505;43.406;23.226;2023-01-29T08:46:59;100492.53;;;5.96;100.00
8941;BME280;4505;43.406;23.226;2023-01-29T08:49:26;100478.28;;;6.26;100.00
8941;BME280;4505;43.406;23.226;2023-01-29T08:51:53;100483.69;;;6.18;100.00
8941;BME280;4505;43.406;23.226;2023-01-29T08:54:21;100486.81;;;6.28;100.00
8941;BME280;4505;43.406;23.226;2023-01-29T08:56:47;100490.53;;;6.34;100.00
8941;BME280;4505;43.406;23.226;2023-01-29T08:59:14;100495.78;;;5.98;100.00
8941;BME280;4505;43.406;23.226;2023-01-29T09:01:41;100494.69;;;6.43;100.00
8941;BME280;4505;43.406;23.226;2023-01-29T09:04:07;100491.34;;;6.76;100.00
8941;BME280;4505;43.406;23.226;2023-01-29T09:06:35;100493.63;;;6.58;100.00
8941;BME280;4505;43.406;23.226;2023-01-29T09:09:05;100491.06;;;6.44;100.00
8941;BME280;4505;43.406;23.226;2023-01-29T09:11:32;100488.47;;;6.71;100.00
8941;BME280;4505;43.406;23.226;2023-01-29T09:13:58;100489.16;;;6.59;100.00
8941;BME280;4505;43.406;23.226;2023-01-29T09:16:25;100488.53;;;6.36;100.00
8941;BME280;4505;43.406;23.226;2023-01-29T09:18:52;100492.34;;;5.25;100.00
8941;BME280;4505;43.406;23.226;2023-01-29T09:21:18;100486.78;;;5.93;100.00
8941;BME280;4505;43.406;23.226;2023-01-29T09:23:46;100494.97;;;5.68;100.00
8941;BME280;4505;43.406;23.226;2023-01-29T09:26:13;100491.22;;;6.21;100.00
8941;BME280;4505;43.406;23.226;2023-01-29T09:28:40;100486.16;;;6.05;100.00
8941;BME280;4505;43.406;23.226;2023-01-29T09:31:06;100482.16;;;5.36;100.00
8941;BME280;4505;43.406;23.226;2023-01-29T09:33:33;100471.63;;;5.95;100.00
8941;BME280;4505;43.406;23.226;2023-01-29T09:36:01;100464.19;;;5.54;100.00
8941;BME280;4505;43.406;23.226;2023-01-29T09:38:27;100464.44;;;5.74;100.00
8941;BME280;4505;43.406;23.226;2023-01-29T09:40:58;100471.72;;;5.43;100.00
8941;BME280;4505;43.406;23.226;2023-01-29T09:43:30;100467.63;;;5.69;100.00
8941;BME280;4505;43.406;23.226;2023-01-29T09:46:03;100461.91;;;5.37;100.00
8941;BME280;4505;43.406;23.226;2023-01-29T09:48:31;100461.63;;;5.32;100.00
8941;BME280;4505;43.406;23.226;2023-01-29T09:50:59;100459.34;;;5.72;100.00
8941;BME280;4505;43.406;23.226;2023-01-29T09:53:29;100458.44;;;5.51;100.00
8941;BME280;4505;43.406;23.226;2023-01-29T09:56:00;100454.66;;;5.53;100.00
8941;BME280;4505;43.406;23.226;2023-01-29T09:58:28;100455.84;;;5.22;100.00
8941;BME280;4505;43.406;23.226;2023-01-29T10:00:58;100454.66;;;5.39;100.00
8941;BME280;4505;43.406;23.226;2023-01-29T10:03:30;100446.81;;;5.74;100.00
8941;BME280;4505;43.406;23.226;2023-01-29T10:06:09;100440.38;;;5.48;100.00
8941;BME280;4505;43.406;23.226;2023-01-29T10:08:44;100440.78;;;6.10;100.00
8941;BME280;4505;43.406;23.226;2023-01-29T10:11:18;100431.53;;;6.20;100.00
8941;BME280;4505;43.406;23.226;2023-01-29T10:13:51;100428.72;;;6.64;100.00
8941;BME280;4505;43.406;23.226;2023-01-29T10:16:26;100430.03;;;7.02;100.00
8941;BME280;4505;43.406;23.226;2023-01-29T10:24:32;100421.44;;;6.45;100.00
8941;BME280;4505;43.406;23.226;2023-01-29T10:27:04;100424.00;;;6.59;100.00
8941;BME280;4505;43.406;23.226;2023-01-29T10:29:37;100416.31;;;6.85;100.00
8941;BME280;4505;43.406;23.226;2023-01-29T10:32:07;100415.97;;;6.67;100.00
8941;BME280;4505;43.406;23.226;2023-01-29T10:34:40;100406.97;;;6.34;100.00
8941;BME280;4505;43.406;23.226;2023-01-29T10:37:12;100401.50;;;7.18;100.00
8941;BME280;4505;43.406;23.226;2023-01-29T10:39:40;100396.25;;;6.91;100.00
8941;BME280;4505;43.406;23.226;2023-01-29T10:42:18;100398.78;;;6.29;100.00
8941;BME280;4505;43.406;23.226;2023-01-29T10:47:35;100397.97;;;6.77;100.00
8941;BME280;4505;43.406;23.226;2023-01-29T10:50:14;100393.34;;;6.86;100.00
8941;BME280;4505;43.406;23.226;2023-01-29T10:52:45;100394.75;;;6.33;100.00
8941;BME280;4505;43.406;23.226;2023-01-29T10:55:19;100394.31;;;6.78;100.00
8941;BME280;4505;43.406;23.226;2023-01-29T10:57:57;100389.22;;;6.49;100.00
8941;BME280;4505;43.406;23.226;2023-01-29T11:00:27;100388.72;;;6.88;100.00
8941;BME280;4505;43.406;23.226;2023-01-29T11:02:55;100379.09;;;6.53;100.00
8941;BME280;4505;43.406;23.226;2023-01-29T11:05:25;100374.50;;;6.61;100.00
8941;BME280;4505;43.406;23.226;2023-01-29T11:07:55;100376.28;;;6.33;100.00
8941;BME280;4505;43.406;23.226;2023-01-29T11:10:26;100376.59;;;6.45;100.00
8941;BME280;4505;43.406;23.226;2023-01-29T11:12:53;100362.19;;;6.20;100.00
8941;BME280;4505;43.406;23.226;2023-01-29T11:15:23;100357.22;;;6.10;100.00
8941;BME280;4505;43.406;23.226;2023-01-29T11:17:59;100349.72;;;6.35;100.00
8941;BME280;4505;43.406;23.226;2023-01-29T11:20:27;100350.63;;;6.00;100.00
8941;BME280;4505;43.406;23.226;2023-01-29T11:22:54;100357.13;;;6.46;100.00
8941;BME280;4505;43.406;23.226;2023-01-29T11:25:21;100358.34;;;6.22;100.00
8941;BME280;4505;43.406;23.226;2023-01-29T11:27:48;100349.97;;;6.40;100.00
8941;BME280;4505;43.406;23.226;2023-01-29T11:30:17;100346.78;;;6.23;100.00
8941;BME280;4505;43.406;23.226;2023-01-29T11:32:49;100350.03;;;6.74;100.00
8941;BME280;4505;43.406;23.226;2023-01-29T11:35:20;100337.38;;;6.97;100.00
8941;BME280;4505;43.406;23.226;2023-01-29T11:37:47;100352.00;;;7.34;100.00
8941;BME280;4505;43.406;23.226;2023-01-29T11:40:30;100338.38;;;6.34;100.00
8941;BME280;4505;43.406;23.226;2023-01-29T11:42:59;100331.84;;;6.09;100.00
8941;BME280;4505;43.406;23.226;2023-01-29T11:45:39;100330.16;;;6.23;100.00
8941;BME280;4505;43.406;23.226;2023-01-29T11:50:53;100340.72;;;6.23;100.00
8941;BME280;4505;43.406;23.226;2023-01-29T11:53:22;100334.50;;;6.09;100.00
8941;BME280;4505;43.406;23.226;2023-01-29T11:55:50;100336.66;;;6.48;100.00
8941;BME280;4505;43.406;23.226;2023-01-29T11:58:25;100346.56;;;5.97;100.00
8941;BME280;4505;43.406;23.226;2023-01-29T12:00:52;100345.72;;;6.18;100.00
8941;BME280;4505;43.406;23.226;2023-01-29T12:03:21;100340.78;;;6.08;100.00
8941;BME280;4505;43.406;23.226;2023-01-29T12:05:53;100334.75;;;6.63;100.00
8941;BME280;4505;43.406;23.226;2023-01-29T12:08:21;100342.94;;;6.47;100.00
8941;BME280;4505;43.406;23.226;2023-01-29T12:10:48;100343.22;;;5.89;100.00
8941;BME280;4505;43.406;23.226;2023-01-29T12:13:20;100339.41;;;6.40;100.00
8941;BME280;4505;43.406;23.226;2023-01-29T12:15:51;100332.53;;;6.66;100.00
8941;BME280;4505;43.406;23.226;2023-01-29T12:18:31;100332.94;;;6.15;100.00
8941;BME280;4505;43.406;23.226;2023-01-29T12:21:03;100331.91;;;6.16;100.00
8941;BME280;4505;43.406;23.226;2023-01-29T12:23:31;100336.00;;;6.18;100.00
8941;BME280;4505;43.406;23.226;2023-01-29T12:26:01;100335.06;;;6.26;100.00
8941;BME280;4505;43.406;23.226;2023-01-29T12:28:35;100326.56;;;6.09;100.00
8941;BME280;4505;43.406;23.226;2023-01-29T12:31:08;100341.34;;;5.82;100.00
8941;BME280;4505;43.406;23.226;2023-01-29T12:33:40;100330.28;;;5.94;100.00
8941;BME280;4505;43.406;23.226;2023-01-29T12:36:11;100333.03;;;5.86;100.00
8941;BME280;4505;43.406;23.226;2023-01-29T12:38:39;100332.47;;;6.11;100.00
8941;BME280;4505;43.406;23.226;2023-01-29T12:41:10;100329.03;;;6.11;100.00
8941;BME280;4505;43.406;23.226;2023-01-29T12:43:39;100335.56;;;6.15;100.00
8941;BME280;4505;43.406;23.226;2023-01-29T12:46:09;100336.94;;;6.11;100.00
8941;BME280;4505;43.406;23.226;2023-01-29T12:48:40;100335.50;;;6.29;100.00
8941;BME280;4505;43.406;23.226;2023-01-29T12:51:08;100334.19;;;6.46;100.00
8941;BME280;4505;43.406;23.226;2023-01-29T12:53:37;100332.25;;;6.82;100.00
8941;BME280;4505;43.406;23.226;2023-01-29T12:56:08;100328.31;;;6.23;100.00
8941;BME280;4505;43.406;23.226;2023-01-29T12:58:37;100347.00;;;6.49;100.00
8941;BME280;4505;43.406;23.226;2023-01-29T13:01:09;100338.97;;;6.36;100.00
8941;BME280;4505;43.406;23.226;2023-01-29T13:03:41;100340.44;;;6.39;100.00
8941;BME280;4505;43.406;23.226;2023-01-29T13:06:11;100340.84;;;5.94;100.00
8941;BME280;4505;43.406;23.226;2023-01-29T13:08:42;100349.41;;;5.81;100.00
8941;BME280;4505;43.406;23.226;2023-01-29T13:11:11;100340.22;;;5.77;100.00
8941;BME280;4505;43.406;23.226;2023-01-29T13:13:41;100345.88;;;5.74;100.00
8941;BME280;4505;43.406;23.226;2023-01-29T13:16:16;100351.13;;;5.74;100.00
8941;BME280;4505;43.406;23.226;2023-01-29T13:18:47;100349.06;;;5.69;100.00
8941;BME280;4505;43.406;23.226;2023-01-29T13:21:16;100347.94;;;5.78;100.00
8941;BME280;4505;43.406;23.226;2023-01-29T13:23:45;100345.88;;;5.74;100.00